Time;durP1;ratioP1;P1;durP2;ratioP2;P2;SDS_P1;SDS_P2;PMS_P1;PMS_P2;Temp;Humidity;BMP_temperature;BMP_pressure;BME280_temperature;BME280_humidity;BME280_pressure;Samples;Min_cycle;Max_cycle;Signal;HPM_P1;HPM_P2
2022/08/11 00:00:44;;;;;;;9.13;4.18;;;18.70;90.00;;;;;;5049985;28;20028;-49
2022/08/11 00:03:14;;;;;;;6.10;3.67;;;18.60;89.90;;;;;;5054526;28;20059;-46
2022/08/11 00:05:51;;;;;;;8.60;5.22;;;18.60;89.90;;;;;;5052814;28;20381;-47
2022/08/11 00:08:26;;;;;;;9.80;4.05;;;18.60;89.70;;;;;;5070927;28;20058;-47
2022/08/11 00:11:06;;;;;;;6.68;4.70;;;18.50;89.70;;;;;;5070954;28;20020;-47
2022/08/11 00:13:44;;;;;;;5.43;3.85;;;18.50;89.70;;;;;;5052438;28;20074;-48
2022/08/11 00:16:15;;;;;;;6.47;4.70;;;18.40;89.60;;;;;;5061060;28;20025;-48
2022/08/11 00:18:50;;;;;;;6.55;3.63;;;18.40;89.50;;;;;;5068733;28;20036;-47
2022/08/11 00:21:19;;;;;;;6.05;3.50;;;18.40;89.50;;;;;;5070279;28;20373;-46
2022/08/11 00:23:57;;;;;;;4.85;3.63;;;18.30;89.40;;;;;;5070813;28;20345;-49
2022/08/11 00:26:24;;;;;;;5.43;3.38;;;18.40;89.40;;;;;;5072124;28;20353;-46
2022/08/11 00:28:51;;;;;;;6.55;3.97;;;18.30;89.30;;;;;;5061549;28;20036;-47
2022/08/11 00:31:30;;;;;;;5.57;4.07;;;18.30;89.20;;;;;;5061973;28;20040;-47
2022/08/11 00:34:00;;;;;;;5.68;4.03;;;18.30;89.10;;;;;;5058666;28;20033;-48
2022/08/11 00:36:43;;;;;;;11.65;4.20;;;18.20;89.10;;;;;;5055662;28;20113;-46
2022/08/11 00:39:09;;;;;;;7.15;3.70;;;18.10;88.90;;;;;;5061868;28;20083;-46
2022/08/11 00:41:54;;;;;;;6.38;3.90;;;18.10;89.00;;;;;;5066460;28;20081;-46
2022/08/11 00:44:38;;;;;;;7.85;4.28;;;18.10;89.00;;;;;;5071888;28;20051;-46
2022/08/11 00:47:27;;;;;;;4.50;3.58;;;18.10;89.00;;;;;;5072463;28;20073;-45
2022/08/11 00:50:10;;;;;;;14.70;4.45;;;18.10;88.90;;;;;;5088567;28;20468;-46
2022/08/11 00:52:57;;;;;;;7.25;4.10;;;17.90;88.70;;;;;;5076679;28;20036;-46
2022/08/11 00:55:54;;;;;;;8.23;4.20;;;17.90;88.80;;;;;;5073977;28;20364;-48
2022/08/11 00:58:44;;;;;;;6.18;4.10;;;17.90;88.80;;;;;;5078622;28;20028;-46
2022/08/11 01:01:26;;;;;;;4.88;3.67;;;17.90;88.80;;;;;;5071836;28;20024;-47
2022/08/11 01:04:38;;;;;;;5.40;3.97;;;17.80;88.70;;;;;;5083827;28;20135;-47
2022/08/11 01:07:28;;;;;;;4.82;3.60;;;17.80;88.70;;;;;;5082270;28;20075;-46
2022/08/11 01:10:27;;;;;;;4.90;3.95;;;17.70;88.70;;;;;;5071364;28;20025;-47
2022/08/11 01:13:32;;;;;;;7.60;4.00;;;17.70;88.60;;;;;;5084769;28;20021;-46
2022/08/11 01:16:13;;;;;;;5.63;3.15;;;17.60;88.60;;;;;;5083841;28;20016;-46
2022/08/11 01:19:13;;;;;;;9.10;4.45;;;17.50;88.70;;;;;;5072446;28;20037;-47
2022/08/11 01:21:56;;;;;;;9.65;4.10;;;17.50;88.60;;;;;;5071242;28;20032;-46
2022/08/11 01:24:59;;;;;;;6.45;3.78;;;17.40;88.70;;;;;;5076948;28;20027;-46
2022/08/11 01:27:34;;;;;;;10.63;4.03;;;17.40;88.60;;;;;;5091353;28;20356;-47
2022/08/11 01:30:27;;;;;;;5.40;4.20;;;17.40;88.80;;;;;;5059827;28;20032;-47
2022/08/11 01:33:30;;;;;;;5.93;4.13;;;17.30;88.80;;;;;;5072111;28;20035;-49
2022/08/11 01:36:39;;;;;;;7.50;4.25;;;17.30;88.80;;;;;;5068729;28;20024;-46
2022/08/11 01:39:39;;;;;;;6.90;4.45;;;17.20;88.90;;;;;;5071015;28;20096;-46
2022/08/11 01:45:38;;;;;;;6.38;4.40;;;17.10;88.90;;;;;;5081026;28;20210;-47
2022/08/11 01:48:07;;;;;;;6.78;4.38;;;17.10;89.00;;;;;;5084982;28;20032;-46
2022/08/11 01:50:56;;;;;;;6.25;4.68;;;17.00;88.90;;;;;;5063770;28;20373;-45
2022/08/11 01:53:46;;;;;;;7.00;4.30;;;17.00;89.00;;;;;;5091037;28;20020;-47
2022/08/11 01:56:39;;;;;;;6.88;4.00;;;17.00;89.00;;;;;;5070475;28;20115;-46
2022/08/11 01:59:24;;;;;;;11.80;5.03;;;16.90;89.00;;;;;;5055452;28;20059;-46
2022/08/11 02:02:00;;;;;;;4.55;4.10;;;16.90;88.80;;;;;;5075596;28;20029;-47
2022/08/11 02:04:31;;;;;;;7.18;4.47;;;16.90;88.90;;;;;;5088776;28;20024;-46
2022/08/11 02:07:29;;;;;;;6.88;4.38;;;16.90;89.00;;;;;;5085419;28;20032;-49
2022/08/11 02:13:29;;;;;;;6.82;4.57;;;16.80;89.00;;;;;;5090765;28;20053;-47
2022/08/11 02:16:22;;;;;;;6.07;4.10;;;16.80;89.10;;;;;;5063810;28;20081;-47
2022/08/11 02:24:48;;;;;;;6.88;4.70;;;16.70;89.40;;;;;;5088424;28;20039;-47
2022/08/11 02:27:23;;;;;;;5.20;4.35;;;16.70;89.40;;;;;;5089049;28;20024;-48
2022/08/11 02:30:03;;;;;;;5.10;4.20;;;16.70;89.40;;;;;;5088225;28;20028;-47
2022/08/11 02:35:44;;;;;;;8.63;5.40;;;16.60;89.40;;;;;;5081710;28;20124;-48
2022/08/11 02:38:42;;;;;;;4.43;4.03;;;16.60;89.40;;;;;;5071856;28;20066;-47
2022/08/11 02:44:51;;;;;;;6.72;5.13;;;16.60;89.40;;;;;;5076498;28;20039;-46
2022/08/11 02:49:52;;;;;;;5.03;4.15;;;16.50;89.40;;;;;;5071102;28;20362;-47
2022/08/11 02:50:55;;;;;;;5.70;4.80;;;16.50;89.50;;;;;;5071442;28;20032;-46
2022/08/11 02:53:34;;;;;;;6.07;5.10;;;16.50;89.50;;;;;;5088925;28;20495;-47
2022/08/11 02:56:31;;;;;;;6.03;4.78;;;16.40;89.40;;;;;;5069356;28;20731;-46
2022/08/11 03:02:30;;;;;;;6.18;4.63;;;16.40;89.30;;;;;;5072560;28;20395;-47
2022/08/11 03:05:11;;;;;;;7.38;4.57;;;16.40;89.30;;;;;;5086800;28;20710;-46
2022/08/11 03:08:18;;;;;;;9.43;5.43;;;16.30;89.30;;;;;;5087411;28;20043;-47
2022/08/11 03:17:33;;;;;;;7.88;4.93;;;16.20;89.30;;;;;;5072489;28;20499;-46
2022/08/11 03:20:21;;;;;;;6.80;5.00;;;16.20;89.40;;;;;;5070205;28;20089;-47
2022/08/11 03:23:02;;;;;;;5.10;4.30;;;16.20;89.40;;;;;;5070122;28;20055;-47
2022/08/11 03:26:14;;;;;;;7.22;4.75;;;16.10;89.50;;;;;;5070058;28;20039;-46
2022/08/11 03:28:49;;;;;;;5.60;4.90;;;16.10;89.50;;;;;;5070166;28;20032;-47
2022/08/11 03:31:27;;;;;;;6.22;5.07;;;16.10;89.40;;;;;;5078798;28;20032;-47
2022/08/11 03:34:15;;;;;;;5.80;4.25;;;16.10;89.50;;;;;;5074009;28;20024;-47
2022/08/11 03:37:05;;;;;;;9.73;5.32;;;16.00;89.40;;;;;;5069997;28;20512;-48
2022/08/11 03:39:58;;;;;;;5.22;4.07;;;16.00;89.30;;;;;;5086347;28;20133;-48
2022/08/11 03:42:41;;;;;;;8.20;4.78;;;16.00;89.40;;;;;;5092706;28;20380;-47
2022/08/11 03:45:13;;;;;;;7.93;4.28;;;16.00;89.40;;;;;;5091805;28;20068;-46
2022/08/11 03:48:03;;;;;;;5.93;4.65;;;16.00;89.40;;;;;;5072321;28;20028;-47
2022/08/11 03:50:38;;;;;;;5.95;4.78;;;16.00;89.50;;;;;;5084757;28;20028;-47
2022/08/11 03:53:19;;;;;;;8.82;4.72;;;15.90;89.40;;;;;;5088122;28;20035;-46
2022/08/11 03:55:56;;;;;;;5.82;4.25;;;15.90;89.50;;;;;;5076845;28;20025;-46
2022/08/11 03:58:39;;;;;;;4.72;4.22;;;15.90;89.50;;;;;;5073819;28;20035;-46
2022/08/11 04:01:22;;;;;;;6.32;4.63;;;15.90;89.50;;;;;;5081043;28;20103;-46
2022/08/11 04:04:07;;;;;;;5.10;3.85;;;15.90;89.30;;;;;;5091253;28;20028;-47
2022/08/11 04:06:54;;;;;;;5.15;4.40;;;15.90;89.30;;;;;;5085424;28;20029;-46
2022/08/11 04:09:37;;;;;;;8.15;4.72;;;15.90;89.30;;;;;;5076324;28;20025;-48
2022/08/11 04:12:54;;;;;;;7.05;4.38;;;15.90;89.40;;;;;;5078372;28;20492;-46
2022/08/11 04:16:03;;;;;;;7.60;4.63;;;15.90;89.30;;;;;;4998035;28;20044;-48
2022/08/11 04:18:43;;;;;;;6.10;4.60;;;15.90;89.30;;;;;;4993897;28;20030;-46
2022/08/11 04:21:15;;;;;;;6.57;4.88;;;15.90;89.40;;;;;;5060236;28;20046;-46
2022/08/11 04:24:03;;;;;;;5.85;4.55;;;15.80;89.40;;;;;;5075122;28;20035;-46
2022/08/11 04:26:32;;;;;;;5.82;4.35;;;15.90;89.40;;;;;;5075958;28;20044;-46
2022/08/11 04:29:24;;;;;;;5.72;4.32;;;15.90;89.40;;;;;;5091010;28;20326;-45
2022/08/11 04:32:15;;;;;;;9.77;4.25;;;15.80;89.40;;;;;;5077465;28;20020;-46
2022/08/11 04:35:06;;;;;;;7.00;5.00;;;15.90;89.50;;;;;;5073008;28;20099;-46
2022/08/11 04:37:37;;;;;;;5.40;4.45;;;15.90;89.50;;;;;;5082709;28;20028;-47
2022/08/11 04:40:24;;;;;;;6.03;4.05;;;15.80;89.50;;;;;;5089272;28;20078;-47
2022/08/11 04:43:20;;;;;;;6.00;4.70;;;15.90;89.50;;;;;;5083620;28;20052;-46
2022/08/11 04:45:45;;;;;;;7.32;4.68;;;15.90;89.50;;;;;;5063195;28;20033;-46
2022/08/11 05:01:40;;;;;;;6.30;4.25;;;16.00;89.60;;;;;;5071622;28;20050;-49
2022/08/11 05:07:14;;;;;;;6.63;5.85;;;16.00;89.70;;;;;;5071373;28;20055;-47
2022/08/11 05:10:07;;;;;;;5.20;4.38;;;16.10;89.80;;;;;;5062587;28;20039;-47
2022/08/11 05:12:41;;;;;;;8.07;4.70;;;16.10;89.80;;;;;;5062450;28;20024;-47
2022/08/11 05:35:47;;;;;;;8.68;5.50;;;16.50;90.10;;;;;;5068969;28;20040;-47
2022/08/11 05:58:06;;;;;;;6.90;5.20;;;17.20;89.00;;;;;;5086953;28;20066;-46
2022/08/11 06:00:42;;;;;;;6.63;5.18;;;17.40;88.50;;;;;;5085299;28;20020;-47
2022/08/11 06:03:09;;;;;;;7.45;4.47;;;17.40;88.30;;;;;;5088078;28;20028;-48
2022/08/11 06:05:40;;;;;;;7.80;4.60;;;17.40;88.10;;;;;;5069515;28;20047;-46
2022/08/11 06:08:11;;;;;;;9.07;4.90;;;17.50;87.90;;;;;;5087119;28;20441;-47
2022/08/11 06:10:39;;;;;;;9.23;4.68;;;17.50;87.80;;;;;;5089103;28;20044;-46
2022/08/11 06:13:06;;;;;;;5.72;4.72;;;17.60;87.50;;;;;;5088058;28;20052;-47
2022/08/11 06:15:42;;;;;;;8.25;5.30;;;17.60;87.00;;;;;;5081490;28;20032;-46
2022/08/11 06:18:11;;;;;;;9.82;5.35;;;17.70;86.80;;;;;;5055424;28;20040;-47
2022/08/11 06:20:57;;;;;;;11.48;4.93;;;17.70;86.40;;;;;;5073603;28;20740;-47
2022/08/11 06:23:29;;;;;;;7.65;5.10;;;17.80;86.10;;;;;;5078661;28;20103;-47
2022/08/11 06:25:57;;;;;;;8.05;4.32;;;17.90;85.70;;;;;;5075100;28;20028;-47
2022/08/11 06:28:37;;;;;;;10.45;4.53;;;18.00;85.40;;;;;;5060501;28;20031;-47
2022/08/11 06:31:18;;;;;;;4.63;3.72;;;18.00;85.20;;;;;;5057370;28;20032;-48
2022/08/11 06:33:54;;;;;;;6.03;3.70;;;18.10;85.00;;;;;;5073096;28;20040;-47
2022/08/11 06:36:33;;;;;;;9.60;3.92;;;18.30;85.10;;;;;;5077557;28;20077;-47
2022/08/11 06:39:20;;;;;;;5.68;4.28;;;18.40;85.40;;;;;;5088924;28;20039;-48
2022/08/11 06:41:53;;;;;;;5.70;4.00;;;18.50;83.90;;;;;;5083527;28;20489;-47
2022/08/11 06:44:37;;;;;;;6.90;3.30;;;18.60;83.20;;;;;;5068682;28;20091;-47
2022/08/11 06:47:11;;;;;;;5.68;3.22;;;18.70;83.20;;;;;;5061142;28;20050;-47
2022/08/11 06:52:35;;;;;;;8.80;3.53;;;18.80;83.20;;;;;;5080350;28;20035;-47
2022/08/11 07:00:57;;;;;;;5.70;3.88;;;19.10;81.30;;;;;;5081446;28;20140;-47
2022/08/11 07:03:27;;;;;;;4.60;3.15;;;19.20;82.20;;;;;;5057273;28;20036;-47
2022/08/11 07:05:57;;;;;;;7.47;3.97;;;19.20;82.50;;;;;;5079308;28;20127;-47
2022/08/11 07:17:27;;;;;;;7.15;3.53;;;19.40;82.20;;;;;;5085613;28;20197;-51
2022/08/11 07:31:36;;;;;;;8.20;3.00;;;20.10;81.60;;;;;;5087458;28;20472;-48
2022/08/11 07:34:19;;;;;;;4.90;2.83;;;20.40;78.90;;;;;;5084070;28;20452;-48
2022/08/11 07:36:53;;;;;;;6.53;3.00;;;21.00;77.70;;;;;;5071680;28;20357;-50
2022/08/11 07:39:22;;;;;;;4.60;2.47;;;21.40;76.70;;;;;;5071122;28;20464;-49
2022/08/11 07:41:53;;;;;;;3.38;2.15;;;22.10;76.20;;;;;;5086037;28;20020;-48
2022/08/11 07:44:20;;;;;;;3.60;2.05;;;22.50;72.20;;;;;;5069503;28;20040;-48
2022/08/11 07:52:33;;;;;;;7.80;2.33;;;23.80;68.00;;;;;;5084362;28;20115;-54
2022/08/11 07:55:01;;;;;;;3.70;1.67;;;24.20;68.60;;;;;;5087465;28;20024;-51
2022/08/11 08:19:31;;;;;;;5.55;2.10;;;26.90;55.50;;;;;;5082383;28;20040;-50
2022/08/11 08:21:57;;;;;;;4.60;2.10;;;27.10;55.70;;;;;;5050756;28;20051;-55
2022/08/11 08:24:27;;;;;;;2.95;1.90;;;27.40;54.80;;;;;;5077866;28;20030;-52
2022/08/11 08:26:58;;;;;;;5.82;1.92;;;27.40;56.10;;;;;;5069664;28;20059;-53
2022/08/11 08:32:16;;;;;;;6.90;2.28;;;27.80;53.70;;;;;;5081697;28;20070;-49
2022/08/11 08:34:42;;;;;;;;;;;28.00;54.10;;;;;;5061169;28;20016;-52
2022/08/11 08:37:09;;;;;;;4.85;1.90;;;28.20;55.80;;;;;;5103526;28;20337;-51
2022/08/11 08:39:36;;;;;;;6.22;2.08;;;28.40;56.20;;;;;;5093360;28;20024;-52
2022/08/11 08:42:10;;;;;;;3.70;1.88;;;28.70;53.70;;;;;;5061219;28;20028;-48
2022/08/11 08:44:40;;;;;;;5.88;2.00;;;28.80;54.40;;;;;;5077827;28;20048;-50
2022/08/11 08:47:09;;;;;;;4.70;2.03;;;28.60;50.90;;;;;;5081515;28;20064;-49
2022/08/11 08:49:38;;;;;;;9.32;1.73;;;28.80;54.10;;;;;;5077118;28;20028;-52
2022/08/11 08:52:06;;;;;;;4.78;1.77;;;29.10;49.20;;;;;;5070656;28;20530;-50
2022/08/11 08:54:42;;;;;;;2.50;1.50;;;29.20;49.10;;;;;;5071284;28;20028;-51
2022/08/11 08:57:12;;;;;;;6.65;1.90;;;29.10;51.10;;;;;;5084587;28;20112;-53
2022/08/11 08:59:43;;;;;;;4.70;1.70;;;29.10;53.30;;;;;;5090575;28;20499;-48
2022/08/11 09:02:12;;;;;;;6.13;2.05;;;29.10;55.50;;;;;;5074461;28;20404;-55
2022/08/11 09:04:42;;;;;;;5.22;2.38;;;29.10;52.60;;;;;;5062314;28;20032;-53
2022/08/11 09:07:17;;;;;;;8.38;2.58;;;29.20;50.30;;;;;;5068509;28;20479;-55
2022/08/11 09:09:55;;;;;;;5.35;2.67;;;29.10;56.50;;;;;;5076092;28;20039;-50
2022/08/11 09:12:27;;;;;;;9.82;2.28;;;28.80;57.30;;;;;;5070217;28;20031;-48
2022/08/11 09:15:00;;;;;;;7.68;3.75;;;28.80;57.00;;;;;;5076740;28;20029;-49
2022/08/11 09:17:29;;;;;;;8.23;2.25;;;28.90;58.00;;;;;;5072904;28;20039;-52
2022/08/11 09:20:14;;;;;;;3.50;1.85;;;28.90;59.50;;;;;;5073573;28;20047;-51
2022/08/11 09:28:16;;;;;;;7.03;1.60;;;29.10;54.00;;;;;;5070422;28;20082;-48
2022/08/11 09:30:48;;;;;;;6.18;1.92;;;29.30;49.50;;;;;;5066490;28;20241;-48
2022/08/11 09:33:15;;;;;;;5.47;2.08;;;29.30;51.40;;;;;;5071795;28;20033;-49
2022/08/11 09:35:45;;;;;;;3.20;1.73;;;29.40;50.40;;;;;;5089780;28;20154;-52
2022/08/11 09:41:08;;;;;;;3.65;1.60;;;29.50;48.50;;;;;;5090744;28;20106;-48
2022/08/11 09:46:31;;;;;;;4.03;1.90;;;29.50;48.10;;;;;;5059076;28;20044;-52
2022/08/11 09:48:59;;;;;;;5.78;2.13;;;29.50;47.30;;;;;;5064268;28;20067;-48
2022/08/11 09:51:31;;;;;;;5.43;2.05;;;29.30;53.50;;;;;;5056749;28;20077;-51
2022/08/11 09:53:59;;;;;;;6.93;1.90;;;29.50;49.00;;;;;;5059138;28;20443;-50
2022/08/11 09:59:11;;;;;;;4.25;1.88;;;29.40;48.00;;;;;;5065591;28;20039;-54
2022/08/11 10:01:44;;;;;;;4.85;1.83;;;29.50;47.00;;;;;;5062019;28;20099;-49
2022/08/11 10:04:21;;;;;;;5.30;1.92;;;29.50;48.90;;;;;;5058484;28;20111;-54
2022/08/11 10:07:01;;;;;;;3.92;1.85;;;29.60;49.70;;;;;;5059633;28;20067;-52
2022/08/11 10:09:58;;;;;;;3.15;2.03;;;29.70;48.30;;;;;;5067128;28;20027;-52
2022/08/11 10:12:31;;;;;;;2.67;1.38;;;29.80;45.30;;;;;;5044301;28;20045;-53
2022/08/11 10:20:50;;;;;;;8.35;3.00;;;29.20;52.30;;;;;;5058437;28;20028;-53
2022/08/11 10:28:48;;;;;;;6.60;3.17;;;28.50;57.80;;;;;;5050542;28;20083;-50
2022/08/11 10:34:04;;;;;;;6.28;2.97;;;28.30;59.10;;;;;;5053732;28;20090;-52
2022/08/11 10:36:43;;;;;;;14.77;3.85;;;28.30;61.80;;;;;;5072958;28;20091;-48
2022/08/11 10:39:14;;;;;;;;;;;28.20;58.90;;;;;;5050186;28;20500;-52
2022/08/11 10:44:24;;;;;;;8.18;3.47;;;28.00;59.50;;;;;;5065114;28;20121;-49
2022/08/11 10:51:11;;;;;;;7.28;3.65;;;28.00;61.00;;;;;;5047561;28;20127;-53
2022/08/11 11:00:57;;;;;;;4.82;2.80;;;27.70;58.80;;;;;;5076372;28;20050;-54
2022/08/11 11:03:28;;;;;;;5.93;3.07;;;27.60;59.70;;;;;;5070741;28;20407;-55
2022/08/11 11:06:02;;;;;;;6.80;3.40;;;27.40;57.20;;;;;;5085900;28;20047;-54
2022/08/11 11:11:19;;;;;;;7.93;3.33;;;27.30;58.40;;;;;;5080816;28;20066;-49
2022/08/11 11:19:24;;;;;;;3.35;1.70;;;27.40;51.60;;;;;;5075318;28;20175;-50
2022/08/11 11:21:54;;;;;;;6.63;1.88;;;27.50;52.40;;;;;;5083473;28;20040;-55
2022/08/11 11:24:44;;;;;;;5.20;2.33;;;27.50;53.50;;;;;;5077471;28;20020;-51
2022/08/11 11:27:48;;;;;;;2.00;1.48;;;27.80;50.60;;;;;;5069444;28;20032;-54
2022/08/11 11:30:16;;;;;;;3.10;1.77;;;27.90;51.00;;;;;;5051211;28;20028;-52
2022/08/11 11:33:03;;;;;;;4.30;1.58;;;27.90;49.20;;;;;;5069102;28;20116;-54
2022/08/11 11:36:03;;;;;;;2.17;1.27;;;28.00;47.40;;;;;;5052062;28;20442;-50
2022/08/11 11:38:31;;;;;;;3.40;1.50;;;27.90;45.80;;;;;;5072630;28;20127;-53
2022/08/11 11:43:44;;;;;;;4.32;1.27;;;27.90;45.50;;;;;;5071910;28;20050;-53
2022/08/11 11:46:11;;;;;;;4.70;1.40;;;27.90;43.80;;;;;;5054932;28;20028;-51
2022/08/11 11:48:37;;;;;;;3.92;1.38;;;27.90;42.10;;;;;;5087540;28;20432;-53
2022/08/11 11:51:03;;;;;;;4.18;1.40;;;28.00;44.10;;;;;;5076508;28;20104;-52
2022/08/11 11:53:29;;;;;;;6.47;2.00;;;28.00;44.60;;;;;;5069742;28;20089;-54
2022/08/11 11:55:56;;;;;;;3.58;1.42;;;27.90;47.70;;;;;;5065281;28;20036;-55
2022/08/11 12:01:16;;;;;;;2.00;1.20;;;27.90;44.30;;;;;;5072914;28;20043;-51
2022/08/11 12:03:45;;;;;;;5.68;1.30;;;27.80;48.40;;;;;;5073859;28;20383;-51
2022/08/11 12:06:14;;;;;;;5.38;1.67;;;27.90;46.20;;;;;;5091701;28;20051;-51
2022/08/11 12:08:42;;;;;;;7.75;2.00;;;27.90;49.30;;;;;;5070824;28;20043;-50
2022/08/11 12:13:59;;;;;;;6.10;2.03;;;27.90;50.20;;;;;;5086963;28;20038;-48
2022/08/11 12:16:27;;;;;;;10.40;2.00;;;27.70;48.60;;;;;;5081541;28;20336;-50
2022/08/11 12:19:00;;;;;;;5.60;1.75;;;27.50;52.90;;;;;;5074105;28;20047;-50
2022/08/11 12:21:27;;;;;;;3.83;1.85;;;27.50;51.50;;;;;;5091159;28;20115;-50
2022/08/11 12:29:16;;;;;;;9.13;2.90;;;26.90;57.80;;;;;;5074810;28;20020;-51
2022/08/11 12:31:42;;;;;;;9.77;2.55;;;27.00;58.30;;;;;;5058687;28;20378;-49
2022/08/11 12:34:15;;;;;;;7.22;2.42;;;26.90;56.80;;;;;;5079008;28;20517;-50
2022/08/11 12:37:15;;;;;;;7.50;2.20;;;26.80;55.90;;;;;;5073579;28;20442;-48
2022/08/11 12:45:40;;;;;;;10.03;3.10;;;26.80;52.20;;;;;;5047574;28;20461;-50
2022/08/11 12:54:01;;;;;;;5.80;1.63;;;26.90;48.70;;;;;;5081339;28;20692;-49
2022/08/11 13:05:06;;;;;;;12.55;2.38;;;26.90;49.90;;;;;;5071979;28;20066;-47
2022/08/11 13:07:35;;;;;;;6.00;2.38;;;26.80;49.00;;;;;;5070109;28;20572;-49
2022/08/11 13:10:04;;;;;;;;;;;26.80;49.80;;;;;;5054817;28;20039;-53
2022/08/11 13:12:50;;;;;;;7.68;1.60;;;26.70;49.90;;;;;;5064088;28;19920;-52
2022/08/11 13:15:27;;;;;;;5.00;1.60;;;26.90;52.40;;;;;;5080626;28;20030;-52
2022/08/11 13:17:56;;;;;;;3.22;1.40;;;26.80;52.20;;;;;;5080333;28;20021;-49
2022/08/11 13:20:24;;;;;;;15.67;2.73;;;26.70;48.90;;;;;;5077551;28;20028;-48
2022/08/11 13:22:57;;;;;;;4.27;1.50;;;26.40;46.30;;;;;;5045954;28;20557;-48
2022/08/11 13:25:27;;;;;;;7.90;2.03;;;26.30;50.50;;;;;;5080199;28;20764;-47
2022/08/11 13:27:59;;;;;;;8.57;2.72;;;26.20;52.30;;;;;;5077539;28;20028;-48
2022/08/11 13:33:32;;;;;;;3.65;1.98;;;26.20;53.90;;;;;;4988656;28;20065;-52
2022/08/11 13:36:03;;;;;;;4.57;2.08;;;26.10;54.20;;;;;;4983005;28;20128;-51
2022/08/11 13:38:31;;;;;;;6.20;2.25;;;26.00;56.20;;;;;;4991519;28;20058;-50
2022/08/11 13:40:59;;;;;;;4.07;1.75;;;26.00;54.40;;;;;;5000283;28;20112;-51
2022/08/11 13:43:25;;;;;;;7.10;1.80;;;25.90;54.20;;;;;;4991657;28;20477;-47
2022/08/11 13:46:17;;;;;;;3.33;1.65;;;26.00;56.00;;;;;;5000248;28;20038;-49
2022/08/11 13:48:38;;;;;;;4.35;1.55;;;26.00;55.10;;;;;;4991973;28;20046;-47
2022/08/11 13:53:50;;;;;;;2.80;1.50;;;26.20;55.90;;;;;;5003083;28;20660;-48
2022/08/11 13:56:16;;;;;;;9.00;2.35;;;26.10;55.20;;;;;;5002839;28;20030;-47
2022/08/11 13:58:42;;;;;;;4.68;2.15;;;26.10;54.30;;;;;;4988483;28;20101;-47
2022/08/11 14:01:10;;;;;;;3.10;1.67;;;26.00;53.90;;;;;;4997582;28;20450;-47
2022/08/11 14:03:40;;;;;;;11.68;1.90;;;26.00;56.00;;;;;;5007476;28;20100;-47
2022/08/11 14:06:08;;;;;;;11.13;2.88;;;26.10;55.90;;;;;;5008682;28;20041;-51
2022/08/11 14:08:37;;;;;;;3.03;1.30;;;26.10;56.30;;;;;;5048981;28;20086;-48
2022/08/11 14:13:51;;;;;;;5.53;1.27;;;26.10;53.50;;;;;;5062369;28;20056;-46
2022/08/11 14:16:31;;;;;;;2.58;1.52;;;26.10;53.70;;;;;;5051822;28;20025;-46
2022/08/11 14:19:00;;;;;;;;;;;26.00;54.00;;;;;;5051869;28;20032;-50
2022/08/11 14:24:20;;;;;;;4.13;1.50;;;26.00;53.80;;;;;;5051269;28;20083;-49
2022/08/11 14:26:49;;;;;;;4.07;1.92;;;25.90;54.70;;;;;;5082796;28;20044;-49
2022/08/11 14:29:18;;;;;;;3.75;1.52;;;25.90;57.40;;;;;;5054643;28;20039;-47
2022/08/11 14:31:45;;;;;;;5.95;1.60;;;26.00;56.50;;;;;;5056448;28;20052;-49
2022/08/11 14:34:13;;;;;;;3.72;1.80;;;26.00;56.50;;;;;;5068267;28;20032;-49
2022/08/11 14:37:07;;;;;;;4.28;1.70;;;26.10;57.30;;;;;;5063301;28;20090;-49
2022/08/11 14:39:56;;;;;;;2.90;1.73;;;26.00;55.50;;;;;;5065570;28;20025;-47
2022/08/11 14:48:19;;;;;;;5.43;1.33;;;25.80;55.50;;;;;;5046675;28;20052;-50
2022/08/11 14:50:46;;;;;;;4.57;1.35;;;25.80;52.80;;;;;;5068000;28;20433;-48
2022/08/11 14:53:14;;;;;;;6.55;1.60;;;25.80;55.90;;;;;;5080726;28;20025;-47
2022/08/11 14:58:34;;;;;;;8.15;1.45;;;25.90;56.60;;;;;;5063389;28;20024;-49
2022/08/11 15:03:05;;;;;;;8.95;1.80;;;25.90;56.70;;;;;;5056418;28;20020;-48
2022/08/11 15:03:51;;;;;;;3.85;1.48;;;25.90;55.00;;;;;;5059613;28;20453;-46
2022/08/11 15:06:18;;;;;;;4.70;1.75;;;26.00;58.20;;;;;;5058221;28;20029;-48
2022/08/11 15:08:57;;;;;;;7.65;1.70;;;25.90;54.90;;;;;;5056525;28;20401;-46
2022/08/11 15:17:06;;;;;;;5.53;1.60;;;25.90;56.20;;;;;;5056242;28;20116;-49
2022/08/11 15:17:08;;;;;;;4.22;1.70;;;26.00;55.30;;;;;;5054659;28;20520;-47
2022/08/11 15:24:17;;;;;;;3.88;1.25;;;25.90;55.50;;;;;;5058255;28;20036;-46
2022/08/11 15:25:11;;;;;;;10.48;2.00;;;25.80;55.20;;;;;;5057146;28;20104;-48
2022/08/11 15:39:18;;;;;;;3.70;1.80;;;25.70;57.60;;;;;;5060471;28;19925;-48
2022/08/11 15:47:56;;;;;;;3.70;1.80;;;25.70;58.70;;;;;;5054441;28;20129;-47
2022/08/11 15:50:29;;;;;;;7.93;1.60;;;25.60;57.50;;;;;;5050500;28;20037;-48
2022/08/11 15:53:03;;;;;;;3.78;1.98;;;25.70;59.30;;;;;;5056315;28;20025;-46
2022/08/11 15:55:32;;;;;;;3.40;1.67;;;25.60;58.00;;;;;;5053013;28;20060;-50
2022/08/11 16:06:33;;;;;;;6.47;2.03;;;25.40;62.40;;;;;;5081654;28;20377;-48
2022/08/11 16:09:04;;;;;;;4.72;1.75;;;25.30;62.50;;;;;;5068467;28;20024;-46
2022/08/11 16:11:34;;;;;;;5.43;1.90;;;25.20;61.40;;;;;;5054400;28;20061;-48
2022/08/11 16:16:51;;;;;;;6.38;2.65;;;25.10;60.80;;;;;;5058388;28;20164;-46
2022/08/11 16:19:20;;;;;;;8.93;3.78;;;25.20;60.30;;;;;;5049895;28;20090;-49
2022/08/11 16:21:54;;;;;;;4.13;1.90;;;25.20;60.50;;;;;;5060511;28;20368;-51
2022/08/11 16:24:23;;;;;;;3.83;1.77;;;25.30;59.70;;;;;;5058093;28;20037;-47
2022/08/11 16:26:54;;;;;;;5.15;1.92;;;25.20;60.00;;;;;;5048980;28;20364;-47
2022/08/11 16:29:25;;;;;;;4.30;2.00;;;25.20;59.30;;;;;;5063785;28;20048;-46
2022/08/11 16:40:21;;;;;;;6.22;1.77;;;24.90;64.10;;;;;;5062934;28;20040;-51
2022/08/11 16:48:27;;;;;;;6.57;2.00;;;24.70;64.90;;;;;;5084663;28;20176;-47
2022/08/11 16:50:55;;;;;;;4.07;1.63;;;24.60;65.30;;;;;;5071662;28;20016;-47
2022/08/11 16:53:22;;;;;;;4.30;1.80;;;24.60;66.40;;;;;;5086301;28;20017;-49
2022/08/11 16:55:51;;;;;;;6.70;2.08;;;24.50;66.30;;;;;;5072270;28;20473;-47
2022/08/11 17:01:07;;;;;;;5.07;2.08;;;24.40;66.10;;;;;;5074946;28;20047;-48
2022/08/11 17:14:56;;;;;;;7.60;2.40;;;24.00;66.70;;;;;;5074435;28;20039;-49
2022/08/11 17:17:27;;;;;;;7.63;2.08;;;23.90;67.80;;;;;;5060310;28;20462;-50
2022/08/11 17:20:06;;;;;;;7.55;1.67;;;23.90;67.10;;;;;;5074447;28;20035;-48
2022/08/11 17:25:22;;;;;;;4.65;1.98;;;23.80;67.50;;;;;;5072767;28;20036;-49
2022/08/11 17:27:52;;;;;;;4.97;1.58;;;23.80;67.90;;;;;;5071263;28;20064;-47
2022/08/11 17:30:18;;;;;;;3.30;1.80;;;23.70;68.20;;;;;;5049068;28;20043;-48
2022/08/11 17:35:38;;;;;;;5.32;1.98;;;23.60;69.70;;;;;;5072373;28;20078;-50
2022/08/11 17:38:17;;;;;;;;;;;23.50;70.10;;;;;;5070565;28;20111;-49
2022/08/11 17:49:36;;;;;;;6.03;2.45;;;23.20;70.80;;;;;;5073147;28;20082;-49
2022/08/11 18:00:24;;;;;;;5.68;1.88;;;23.10;72.20;;;;;;5079334;28;20321;-50
2022/08/11 18:05:42;;;;;;;4.75;2.47;;;23.00;73.30;;;;;;5079631;28;20085;-48
